createdAt,value
2022-09-18T00:03:51.859Z,592.42105
2022-09-18T00:08:53.501Z,560
2022-09-18T00:13:55.141Z,525.13208
2022-09-18T00:18:56.739Z,504
2022-09-18T00:23:58.397Z,606.36559
2022-09-18T00:29:00.019Z,547.92157
2022-09-18T00:34:01.659Z,525.13208
2022-09-18T00:39:03.476Z,536.30769
2022-09-18T00:44:05.159Z,560
2022-09-18T00:49:06.752Z,542.05825
2022-09-18T00:54:08.397Z,514.37037
2022-09-18T00:59:10.085Z,519.70093
2022-09-18T01:04:11.683Z,536.30769
2022-09-18T01:09:25.157Z,536.30769
2022-09-18T01:14:29.940Z,494
2022-09-18T01:19:31.586Z,479.65217
2022-09-18T01:24:33.220Z,530.66667
2022-09-18T01:29:34.867Z,504
2022-09-18T01:34:36.508Z,461.64706
2022-09-18T01:39:38.179Z,461.64706
2022-09-18T01:44:39.895Z,479.65217
2022-09-18T01:49:41.510Z,484.35088
2022-09-18T01:54:43.138Z,484.35088
2022-09-18T01:59:45.001Z,498.95495
2022-09-18T02:04:46.606Z,479.65217
2022-09-18T02:09:48.283Z,504
2022-09-18T02:14:49.914Z,489.13274
2022-09-18T02:19:51.509Z,514.37037
2022-09-18T02:24:53.118Z,514.37037
2022-09-18T02:29:54.802Z,498.95495
2022-09-18T02:34:56.408Z,470.49573
2022-09-18T02:39:58.299Z,484.35088
2022-09-18T02:45:00.030Z,475.03448
2022-09-18T02:50:02.280Z,498.95495
2022-09-18T02:55:04.051Z,489.13274
2022-09-18T03:00:05.675Z,484.35088
2022-09-18T03:05:07.407Z,484.35088
2022-09-18T03:10:09.029Z,479.65217
2022-09-18T03:15:10.683Z,466.0339
2022-09-18T03:20:12.399Z,489.13274
2022-09-18T03:25:14.007Z,498.95495
2022-09-18T03:30:15.651Z,504
2022-09-18T03:35:17.391Z,484.35088
2022-09-18T03:40:19.113Z,494
2022-09-18T03:45:20.834Z,514.37037
2022-09-18T03:50:22.553Z,542.05825
2022-09-18T03:55:24.185Z,553.90099
2022-09-18T04:00:25.774Z,536.30769
2022-09-18T04:05:27.413Z,530.66667
2022-09-18T04:10:29.012Z,525.13208
2022-09-18T04:15:30.797Z,525.13208
2022-09-18T04:20:32.489Z,536.30769
2022-09-18T04:25:34.136Z,572.57143
2022-09-18T04:30:35.884Z,547.92157
2022-09-18T04:35:37.553Z,547.92157
2022-09-18T04:40:39.229Z,536.30769
2022-09-18T04:45:40.870Z,547.92157
2022-09-18T04:50:42.555Z,525.13208
2022-09-18T04:55:44.173Z,536.30769
2022-09-18T05:00:45.942Z,525.13208
2022-09-18T05:05:47.580Z,525.13208
2022-09-18T05:10:49.218Z,542.05825
2022-09-18T05:15:51.079Z,547.92157
2022-09-18T05:20:52.707Z,536.30769
2022-09-18T05:25:54.328Z,547.92157
2022-09-18T05:30:56.086Z,509.13761
2022-09-18T05:35:57.735Z,504
2022-09-18T05:40:59.352Z,498.95495
2022-09-18T05:46:01.001Z,504
2022-09-18T05:51:02.644Z,525.13208
2022-09-18T05:56:04.302Z,536.30769
2022-09-18T06:01:05.950Z,536.30769
2022-09-18T06:06:07.645Z,525.13208
2022-09-18T06:11:09.457Z,525.13208
2022-09-18T06:16:11.155Z,525.13208
2022-09-18T06:21:12.804Z,536.30769
2022-09-18T06:26:15.287Z,525.13208
2022-09-18T06:31:17.109Z,530.66667
2022-09-18T06:36:18.776Z,514.37037
2022-09-18T06:41:20.372Z,553.90099
2022-09-18T06:46:22.126Z,566.22222
2022-09-18T06:51:23.803Z,553.90099
2022-09-18T06:56:25.412Z,560
2022-09-18T07:01:27.109Z,579.05155
2022-09-18T07:06:28.819Z,560
2022-09-18T07:11:30.696Z,553.90099
2022-09-18T07:16:32.461Z,553.90099
2022-09-18T07:21:34.143Z,536.30769
2022-09-18T07:26:35.881Z,579.05155
2022-09-18T07:31:37.775Z,547.92157
2022-09-18T07:36:39.461Z,542.05825
2022-09-18T07:41:41.085Z,542.05825
2022-09-18T07:46:42.853Z,547.92157
2022-09-18T07:51:44.732Z,553.90099
2022-09-18T07:56:47.062Z,560
2022-09-18T08:01:49.255Z,572.57143
2022-09-18T08:06:51.016Z,579.05155
2022-09-18T08:11:52.623Z,613.56522
2022-09-18T08:16:54.251Z,628.44444
2022-09-18T08:21:55.868Z,620.92308
2022-09-18T08:26:57.731Z,620.92308
2022-09-18T08:31:59.410Z,644
2022-09-18T08:37:00.996Z,652.04598
2022-09-18T08:42:02.645Z,660.27907
2022-09-18T08:47:04.262Z,652.04598
2022-09-18T08:52:05.972Z,660.27907
2022-09-18T08:57:09.314Z,668.70588
2022-09-18T09:02:14.190Z,677.33333
2022-09-18T09:07:15.808Z,686.16867
2022-09-18T09:12:17.389Z,677.33333
2022-09-18T09:17:18.936Z,668.70588
2022-09-18T09:22:20.543Z,668.70588
2022-09-18T09:27:22.226Z,652.04598
2022-09-18T09:32:23.864Z,636.13483
2022-09-18T09:37:25.456Z,644
2022-09-18T09:42:27.175Z,636.13483
2022-09-18T09:47:28.764Z,636.13483
2022-09-18T09:52:30.375Z,644
2022-09-18T09:57:32.060Z,644
2022-09-18T10:02:33.672Z,652.04598
2022-09-18T10:07:35.278Z,652.04598
2022-09-18T10:12:37.024Z,652.04598
2022-09-18T10:17:38.635Z,668.70588
2022-09-18T10:22:40.237Z,668.70588
2022-09-18T10:27:41.983Z,668.70588
2022-09-18T10:32:43.642Z,668.70588
2022-09-18T10:37:45.239Z,677.33333
2022-09-18T10:42:46.911Z,668.70588
2022-09-18T10:47:48.535Z,677.33333
2022-09-18T10:52:50.126Z,677.33333
2022-09-18T10:57:51.713Z,686.16867
2022-09-18T11:02:53.356Z,686.16867
2022-09-18T11:07:55.025Z,677.33333
2022-09-18T11:12:56.721Z,677.33333
2022-09-18T11:17:58.373Z,686.16867
2022-09-18T11:23:00.018Z,714
2022-09-18T11:28:01.647Z,695.21951
2022-09-18T11:33:03.263Z,695.21951
2022-09-18T11:38:04.955Z,686.16867
2022-09-18T11:43:06.643Z,686.16867
2022-09-18T11:48:08.302Z,686.16867
2022-09-18T11:53:09.945Z,686.16867
2022-09-18T11:58:11.589Z,686.16867
2022-09-18T12:03:13.450Z,695.21951
2022-09-18T12:08:13.926Z,704.49383
2022-09-18T12:13:15.644Z,704.49383
2022-09-18T12:18:17.289Z,704.49383
2022-09-18T12:23:18.882Z,695.21951
2022-09-18T12:28:20.497Z,704.49383
2022-09-18T12:33:22.140Z,704.49383
2022-09-18T12:38:23.750Z,704.49383
2022-09-18T12:43:26.018Z,704.49383
2022-09-18T12:48:27.676Z,695.21951
2022-09-18T12:53:29.237Z,714
2022-09-18T12:58:30.817Z,714
2022-09-18T13:03:32.462Z,704.49383
2022-09-18T13:08:34.076Z,723.74684
2022-09-18T13:13:35.846Z,695.21951
2022-09-18T13:18:38.186Z,686.16867
2022-09-18T13:23:39.819Z,686.16867
2022-09-18T13:28:41.461Z,695.21951
2022-09-18T13:33:43.150Z,695.21951
2022-09-18T13:38:44.795Z,695.21951
2022-09-18T13:43:46.496Z,695.21951
2022-09-18T13:48:48.219Z,695.21951
2022-09-18T13:53:49.877Z,686.16867
2022-09-18T13:58:51.459Z,695.21951
2022-09-18T14:03:53.604Z,704.49383
2022-09-18T14:08:55.224Z,704.49383
2022-09-18T14:13:56.816Z,695.21951
2022-09-18T14:18:58.501Z,714
2022-09-18T14:24:00.215Z,704.49383
2022-09-18T14:29:01.850Z,695.21951
2022-09-18T14:34:03.475Z,723.74684
2022-09-18T14:39:05.200Z,686.16867
2022-09-18T14:44:06.884Z,704.49383
2022-09-18T14:49:08.529Z,686.16867
2022-09-18T14:54:10.140Z,686.16867
2022-09-18T14:59:11.790Z,695.21951
2022-09-18T15:04:13.419Z,695.21951
2022-09-18T15:09:15.097Z,695.21951
2022-09-18T15:14:16.676Z,668.70588
2022-09-18T15:19:18.253Z,714
2022-09-18T15:24:19.908Z,714
2022-09-18T15:29:21.537Z,704.49383
2022-09-18T15:34:23.290Z,714
2022-09-18T15:39:24.897Z,704.49383
2022-09-18T15:44:26.505Z,704.49383
2022-09-18T15:49:28.108Z,704.49383
2022-09-18T15:54:29.749Z,704.49383
2022-09-18T15:59:31.395Z,704.49383
2022-09-18T16:04:33.035Z,695.21951
2022-09-18T16:09:34.636Z,695.21951
2022-09-18T16:14:36.258Z,704.49383
2022-09-18T16:19:37.913Z,754.52632
2022-09-18T16:24:39.545Z,723.74684
2022-09-18T16:29:41.418Z,723.74684
2022-09-18T16:34:43.139Z,714
2022-09-18T16:39:44.773Z,686.16867
2022-09-18T16:44:46.376Z,714
2022-09-18T16:49:48.128Z,704.49383
2022-09-18T16:54:49.782Z,714
2022-09-18T16:59:51.418Z,733.74359
2022-09-18T17:04:53.030Z,754.52632
2022-09-18T17:09:54.626Z,754.52632
2022-09-18T17:14:56.317Z,765.33333
2022-09-18T17:19:57.919Z,754.52632
2022-09-18T17:24:59.618Z,754.52632
2022-09-18T17:30:01.316Z,744
2022-09-18T17:35:02.931Z,714
2022-09-18T17:40:04.618Z,733.74359
2022-09-18T17:45:06.313Z,733.74359
2022-09-18T17:50:07.955Z,714
2022-09-18T17:55:09.640Z,714
2022-09-18T18:00:11.243Z,714
2022-09-18T18:05:12.840Z,704.49383
2022-09-18T18:10:14.509Z,677.33333
2022-09-18T18:15:16.117Z,652.04598
2022-09-18T18:20:17.717Z,668.70588
2022-09-18T18:25:19.370Z,695.21951
2022-09-18T18:30:21.083Z,723.74684
2022-09-18T18:35:23.508Z,754.52632
2022-09-18T18:40:25.200Z,765.33333
2022-09-18T18:45:26.839Z,776.43243
2022-09-18T18:50:28.507Z,765.33333
2022-09-18T18:55:30.154Z,733.74359
2022-09-18T19:00:31.919Z,695.21951
2022-09-18T19:05:33.717Z,677.33333
2022-09-18T19:10:35.337Z,686.16867
2022-09-18T19:15:38.536Z,704.49383
2022-09-18T19:20:40.279Z,733.74359
2022-09-18T19:25:41.896Z,704.49383
2022-09-18T19:30:43.530Z,714
2022-09-18T19:35:45.143Z,733.74359
2022-09-18T19:40:46.872Z,723.74684
2022-09-18T19:45:48.768Z,704.49383
2022-09-18T19:50:50.401Z,660.27907
2022-09-18T19:55:52.028Z,695.21951
2022-09-18T20:00:53.673Z,652.04598
2022-09-18T20:05:55.361Z,686.16867
2022-09-18T20:10:56.943Z,686.16867
2022-09-18T20:15:58.631Z,714
2022-09-18T20:21:00.319Z,723.74684
2022-09-18T20:26:01.971Z,744
2022-09-18T20:31:03.628Z,776.43243
2022-09-18T20:36:05.326Z,765.33333
2022-09-18T20:41:07.179Z,744
2022-09-18T20:46:09.021Z,744
2022-09-18T20:51:10.688Z,776.43243
2022-09-18T20:56:12.298Z,787.83562
2022-09-18T21:01:14.000Z,776.43243
2022-09-18T21:06:22.035Z,776.43243
2022-09-18T21:11:24.392Z,799.55556
2022-09-18T21:16:26.407Z,799.55556
2022-09-18T21:21:28.200Z,811.60563
2022-09-18T21:26:29.833Z,824
2022-09-18T21:31:31.453Z,799.55556
2022-09-18T21:36:33.090Z,776.43243
2022-09-18T21:41:34.813Z,765.33333
2022-09-18T21:46:36.593Z,744
2022-09-18T21:51:38.207Z,723.74684
2022-09-18T21:56:39.853Z,733.74359
2022-09-18T22:01:41.490Z,754.52632
2022-09-18T22:06:43.116Z,744
2022-09-18T22:11:44.725Z,723.74684
2022-09-18T22:16:46.337Z,704.49383
2022-09-18T22:21:47.927Z,668.70588
2022-09-18T22:26:49.554Z,686.16867
2022-09-18T22:31:51.280Z,668.70588
2022-09-18T22:36:52.954Z,668.70588
2022-09-18T22:41:54.564Z,599.31915
2022-09-18T22:46:56.209Z,620.92308
2022-09-18T22:51:58.116Z,613.56522
2022-09-18T22:56:59.706Z,644
2022-09-18T23:02:01.464Z,695.21951
2022-09-18T23:07:03.166Z,677.33333
2022-09-18T23:12:04.764Z,677.33333
2022-09-18T23:17:06.362Z,668.70588
2022-09-18T23:22:08.008Z,660.27907
2022-09-18T23:27:09.689Z,585.66667
2022-09-18T23:32:11.265Z,519.70093
2022-09-18T23:37:12.890Z,585.66667
2022-09-18T23:42:14.474Z,579.05155
2022-09-18T23:47:16.078Z,560
2022-09-18T23:52:17.815Z,599.31915
2022-09-18T23:57:19.453Z,572.57143
